Taasinge Maersk — OUSX2 — position and weather

sailwx.info

Track history (hours):
 
Tides and Currents Weather Stations Pressure Air Temp Water Temp Dewpoint Dewpoint Depression Visibility Wind Speed Wind Dir Waves Ship Positions

Taasinge Maersk

Last reported at 2017-Nov-18 18:23 UTC. Time now 2017-Nov-20 05:54 UTC.
Position N 31°51' E 031°39'.

Length 191 m; draft 7.4 m.

Type: Cargo ship. MMSI: 220157000.

Date/timePositionNaut miles runAvg speedWind from/ knotsBaromVisibWave heightAir tempDewpointWater temp
2017-Nov-18 18:23N 31°51' E 031°39'716.9
2017-Nov-18 17:59N 31°48' E 031°46'47 7.1
2017-Nov-18 11:21N 31°12' E 032°21'10 0.6
2017-Nov-17 19:03N 31°22' E 032°24'0 8.6
2017-Nov-17 19:01N 31°23' E 032°24'510.9
2017-Nov-17 18:31N 31°28' E 032°26'4 8.7
2017-Nov-17 18:00N 31°30' E 032°21'813.2
2017-Nov-17 17:26N 31°32' E 032°13'614.0
2017-Nov-17 17:00N 31°36' E 032°07'815.1
2017-Nov-17 16:30N 31°41' E 032°01'2316.5
2017-Nov-17 15:08N 31°57' E 031°42'317.3
2017-Nov-17 14:56N 31°59' E 031°39'3817.7
2017-Nov-17 12:46N 32°28' E 031°09'518.2
2017-Nov-17 12:31N 32°32' E 031°06'918.1
2017-Nov-17 12:00N 32°39' E 030°58'1718.1
2017-Nov-17 11:03N 32°52' E 030°45'118.2
2017-Nov-17 11:00N 32°52' E 030°44'918.1
2017-Nov-17 10:31N 32°59' E 030°37'918.4
2017-Nov-17 10:00N 33°06' E 030°30'34317.5
2017-Nov-16 14:24N 37°26' E 025°55'29 0.9
2017-Nov-15 05:56N 37°52' E 025°40'614.4
2017-Nov-15 05:31N 37°46' E 025°42'714.3
2017-Nov-15 05:01N 37°39' E 025°45'714.6
2017-Nov-15 04:30N 37°32' E 025°48'714.1
2017-Nov-15 04:00N 37°27' E 025°54'  
2017-Nov-09 22:58N 36°12' E 014°45'715.4
2017-Nov-09 22:30N 36°14' E 014°37'815.3
2017-Nov-09 22:00N 36°15' E 014°27'815.4
2017-Nov-09 21:30N 36°17' E 014°18'815.2
2017-Nov-09 21:00N 36°19' E 014°09'815.4
2017-Nov-09 20:28N 36°23' E 014°00'  
Track history (hours):
 
Tides and Currents Weather Stations Pressure Air Temp Water Temp Dewpoint Dewpoint Depression Visibility Wind Speed Wind Dir Waves Ship Positions

Taasinge Maersk

Last reported at 2017-Nov-18 18:23 UTC. Time now 2017-Nov-20 05:54 UTC.
Position N 31°51' E 031°39'.

Length 191 m; draft 7.4 m.

Type: Cargo ship. MMSI: 220157000.

Date/timePositionNaut miles runAvg speedWind from/ knotsBaromVisibWave heightAir tempDewpointWater temp
2017-Nov-18 18:23N 31°51' E 031°39'716.9
2017-Nov-18 17:59N 31°48' E 031°46'47 7.1
2017-Nov-18 11:21N 31°12' E 032°21'10 0.6
2017-Nov-17 19:03N 31°22' E 032°24'0 8.6
2017-Nov-17 19:01N 31°23' E 032°24'510.9
2017-Nov-17 18:31N 31°28' E 032°26'4 8.7
2017-Nov-17 18:00N 31°30' E 032°21'813.2
2017-Nov-17 17:26N 31°32' E 032°13'614.0
2017-Nov-17 17:00N 31°36' E 032°07'815.1
2017-Nov-17 16:30N 31°41' E 032°01'2316.5
2017-Nov-17 15:08N 31°57' E 031°42'317.3
2017-Nov-17 14:56N 31°59' E 031°39'3817.7
2017-Nov-17 12:46N 32°28' E 031°09'518.2
2017-Nov-17 12:31N 32°32' E 031°06'918.1
2017-Nov-17 12:00N 32°39' E 030°58'1718.1
2017-Nov-17 11:03N 32°52' E 030°45'118.2
2017-Nov-17 11:00N 32°52' E 030°44'918.1
2017-Nov-17 10:31N 32°59' E 030°37'918.4
2017-Nov-17 10:00N 33°06' E 030°30'34317.5
2017-Nov-16 14:24N 37°26' E 025°55'29 0.9
2017-Nov-15 05:56N 37°52' E 025°40'614.4
2017-Nov-15 05:31N 37°46' E 025°42'714.3
2017-Nov-15 05:01N 37°39' E 025°45'714.6
2017-Nov-15 04:30N 37°32' E 025°48'714.1
2017-Nov-15 04:00N 37°27' E 025°54'  
2017-Nov-09 22:58N 36°12' E 014°45'715.4
2017-Nov-09 22:30N 36°14' E 014°37'815.3
2017-Nov-09 22:00N 36°15' E 014°27'815.4
2017-Nov-09 21:30N 36°17' E 014°18'815.2
2017-Nov-09 21:00N 36°19' E 014°09'815.4
2017-Nov-09 20:28N 36°23' E 014°00'  

Dump ship's entire track history